Time;durP1;ratioP1;P1;durP2;ratioP2;P2;SDS_P1;SDS_P2;PMS_P1;PMS_P2;Temp;Humidity;BMP_temperature;BMP_pressure;BME280_temperature;BME280_humidity;BME280_pressure;Samples;Min_cycle;Max_cycle;Signal;HPM_P1;HPM_P2
2022/03/30 00:00:37;;;;;;;25.02;14.75;;;11.90;99.90;;;;;;5034738;28;20021;-84
2022/03/30 00:03:04;;;;;;;26.25;15.32;;;11.90;99.90;;;;;;5036848;28;20086;-84
2022/03/30 00:05:30;;;;;;;28.17;15.50;;;11.90;99.90;;;;;;5037771;28;20060;-85
2022/03/30 00:07:56;;;;;;;27.50;16.13;;;11.90;99.90;;;;;;5036069;28;20050;-83
2022/03/30 00:10:22;;;;;;;30.52;15.20;;;12.10;99.90;;;;;;5034775;28;20039;-84
2022/03/30 00:12:49;;;;;;;24.15;13.98;;;11.90;99.90;;;;;;5035820;28;20207;-85
2022/03/30 00:15:16;;;;;;;25.23;14.60;;;11.90;99.90;;;;;;5037380;28;20029;-88
2022/03/30 00:17:43;;;;;;;20.30;13.85;;;11.80;99.90;;;;;;5037230;28;20029;-85
2022/03/30 00:20:10;;;;;;;28.90;16.48;;;12.10;99.90;;;;;;5053982;28;20104;-86
2022/03/30 00:22:38;;;;;;;24.23;14.30;;;11.80;99.90;;;;;;5035312;28;20033;-84
2022/03/30 00:25:05;;;;;;;26.13;15.40;;;11.80;99.90;;;;;;5033935;28;20029;-86
2022/03/30 00:27:31;;;;;;;23.27;15.15;;;11.80;99.90;;;;;;5036506;28;20064;-87
2022/03/30 00:29:56;;;;;;;27.15;16.75;;;11.80;99.90;;;;;;5039601;28;20535;-87
2022/03/30 00:32:22;;;;;;;25.88;15.60;;;12.10;99.90;;;;;;5038033;28;20532;-87
2022/03/30 00:34:48;;;;;;;25.48;15.45;;;11.80;99.90;;;;;;5034527;28;20031;-84
2022/03/30 00:37:14;;;;;;;25.75;15.50;;;;;;;;;;5031079;28;20036;-87
2022/03/30 00:39:39;;;;;;;23.65;15.57;;;11.90;99.90;;;;;;5036974;28;20035;-88
2022/03/30 00:42:16;;;;;;;25.17;15.73;;;11.90;99.90;;;;;;5041093;28;20123;-86
2022/03/30 00:44:42;;;;;;;31.90;15.82;;;11.90;99.90;;;;;;5038272;23;20037;-85
2022/03/30 00:47:15;;;;;;;36.35;17.00;;;11.70;99.90;;;;;;5018549;28;20449;-83
2022/03/30 00:49:42;;;;;;;22.92;14.93;;;11.80;99.90;;;;;;5023634;28;20223;-83
2022/03/30 00:52:14;;;;;;;27.13;15.57;;;11.70;99.90;;;;;;5134547;23;20040;-80
2022/03/30 00:54:48;;;;;;;23.98;14.57;;;11.70;99.90;;;;;;5058851;28;20107;-80
2022/03/30 01:10:19;;;;;;;23.15;14.30;;;11.60;99.90;;;;;;5027936;28;20176;-80
2022/03/30 01:13:01;;;;;;;27.73;15.75;;;11.70;99.90;;;;;;4998381;28;20029;-81
2022/03/30 01:19:34;;;;;;;25.65;15.40;;;11.70;99.90;;;;;;5075700;28;20030;-81
2022/03/30 01:22:29;;;;;;;26.52;15.60;;;11.60;99.90;;;;;;5033415;28;20475;-78
2022/03/30 01:24:55;;;;;;;27.67;16.35;;;;;;;;;;5055238;28;20033;-80
2022/03/30 01:27:23;;;;;;;24.02;15.20;;;;;;;;;;5073204;28;20077;-81
2022/03/30 01:32:53;;;;;;;21.70;16.00;;;11.60;99.90;;;;;;5056741;28;20034;-81
2022/03/30 01:35:20;;;;;;;28.80;16.23;;;;;;;;;;5058049;28;20469;-78
2022/03/30 01:37:46;;;;;;;28.08;16.05;;;;;;;;;;5084843;28;20093;-85
2022/03/30 01:40:15;;;;;;;29.73;18.20;;;;;;;;;;5073865;28;20032;-78
2022/03/30 01:42:49;;;;;;;24.67;15.95;;;11.50;99.90;;;;;;5072987;28;20040;-80
2022/03/30 01:45:16;;;;;;;26.85;17.33;;;11.60;99.90;;;;;;5089991;28;20032;-79
2022/03/30 01:47:57;;;;;;;29.17;18.58;;;11.70;99.90;;;;;;5080376;28;20036;-79
2022/03/30 01:50:28;;;;;;;26.80;17.38;;;11.60;99.90;;;;;;5061732;28;20490;-79
2022/03/30 01:53:11;;;;;;;26.90;17.55;;;;;;;;;;5055745;28;20067;-79
2022/03/30 01:55:37;;;;;;;29.98;18.55;;;;;;;;;;5058478;28;20031;-79
2022/03/30 01:58:11;;;;;;;28.65;19.27;;;11.50;99.90;;;;;;5073967;28;20073;-81
2022/03/30 02:00:39;;;;;;;32.25;20.17;;;;;;;;;;5052282;28;20033;-80
2022/03/30 02:03:15;;;;;;;34.10;21.15;;;11.50;99.90;;;;;;5075262;28;20068;-81
2022/03/30 02:05:41;;;;;;;32.65;20.13;;;11.50;99.90;;;;;;5044788;28;20027;-85
2022/03/30 02:08:25;;;;;;;34.78;21.42;;;11.50;99.90;;;;;;5043276;28;20092;-82
2022/03/30 02:10:51;;;;;;;30.98;21.25;;;8.90;99.90;;;;;;5060110;28;20029;-78
2022/03/30 02:13:17;;;;;;;32.30;20.30;;;;;;;;;;5054707;28;20024;-78
2022/03/30 02:15:46;;;;;;;35.53;20.85;;;11.70;99.90;;;;;;5069424;28;20025;-79
2022/03/30 02:18:12;;;;;;;31.50;19.95;;;;;;;;;;5053811;28;20044;-78
2022/03/30 02:20:48;;;;;;;29.70;19.05;;;12.30;99.90;;;;;;5053904;28;20508;-81
2022/03/30 02:23:15;;;;;;;31.63;20.15;;;11.70;99.90;;;;;;5079015;28;20108;-80
2022/03/30 02:25:41;;;;;;;32.95;20.15;;;;;;;;;;5056363;28;20094;-78
2022/03/30 02:28:15;;;;;;;32.25;19.08;;;10.90;99.90;;;;;;5072746;28;20036;-82
2022/03/30 02:31:00;;;;;;;31.50;19.65;;;11.40;99.90;;;;;;5057680;28;20029;-78
2022/03/30 02:33:29;;;;;;;33.58;19.63;;;11.40;99.90;;;;;;5052473;28;20455;-77
2022/03/30 02:35:56;;;;;;;34.60;20.92;;;11.40;99.90;;;;;;5051797;28;20047;-81
2022/03/30 02:38:26;;;;;;;33.65;20.10;;;11.40;99.90;;;;;;5056054;28;20028;-78
2022/03/30 02:40:57;;;;;;;31.10;20.42;;;11.40;99.90;;;;;;5049980;28;20034;-79
2022/03/30 02:43:26;;;;;;;;;;;11.60;99.90;;;;;;5017964;28;20029;-79
2022/03/30 02:45:59;;;;;;;31.70;21.05;;;11.30;99.90;;;;;;5031254;28;19959;-78
2022/03/30 02:48:33;;;;;;;31.63;20.48;;;11.30;99.90;;;;;;5034619;28;20771;-79
2022/03/30 02:51:07;;;;;;;35.28;20.05;;;11.50;99.90;;;;;;5032866;28;20040;-80
2022/03/30 02:53:34;;;;;;;33.78;20.05;;;11.40;99.90;;;;;;5033906;28;20086;-79
2022/03/30 02:56:01;;;;;;;32.00;19.80;;;11.30;99.90;;;;;;5051079;28;20387;-81
2022/03/30 02:58:36;;;;;;;31.33;20.67;;;11.30;99.90;;;;;;5047629;28;20025;-78
2022/03/30 03:01:09;;;;;;;28.42;19.05;;;11.50;99.90;;;;;;5047199;28;20021;-78
2022/03/30 03:03:35;;;;;;;39.88;20.08;;;;;;;;;;5049172;28;20031;-81
2022/03/30 03:06:08;;;;;;;28.52;19.17;;;11.40;99.90;;;;;;5052272;28;20514;-80
2022/03/30 03:08:35;;;;;;;;;;;11.40;99.90;;;;;;5029836;28;20067;-79
2022/03/30 03:11:03;;;;;;;30.10;18.20;;;;;;;;;;5048027;28;19920;-80
2022/03/30 03:13:33;;;;;;;29.65;19.15;;;;;;;;;;5050482;28;20358;-79
2022/03/30 03:15:59;;;;;;;34.20;20.03;;;;;;;;;;5018243;28;20143;-79
2022/03/30 03:18:25;;;;;;;31.40;20.88;;;;;;;;;;5018478;28;20105;-79
2022/03/30 03:20:52;;;;;;;29.73;19.88;;;;;;;;;;5031295;28;20044;-81
2022/03/30 03:23:18;;;;;;;30.85;20.85;;;;;;;;;;5033234;28;20029;-79
2022/03/30 03:25:44;;;;;;;32.78;21.08;;;;;;;;;;5054066;28;20026;-79
2022/03/30 03:28:14;;;;;;;31.48;21.40;;;11.40;99.90;;;;;;5029629;28;20013;-80
2022/03/30 03:30:42;;;;;;;33.17;20.75;;;11.40;99.90;;;;;;5032748;28;20115;-80
2022/03/30 03:33:09;;;;;;;38.83;21.63;;;11.50;99.90;;;;;;5033519;28;20315;-81
2022/03/30 03:35:36;;;;;;;31.23;20.45;;;;;;;;;;5032179;28;20120;-78
2022/03/30 03:38:08;;;;;;;33.90;20.63;;;11.30;99.90;;;;;;5035422;28;20041;-79
2022/03/30 03:40:45;;;;;;;28.25;19.60;;;11.30;99.90;;;;;;5036294;28;20029;-80
2022/03/30 03:43:12;;;;;;;31.38;20.33;;;;;;;;;;5041071;28;20573;-79
2022/03/30 03:45:38;;;;;;;28.38;19.55;;;;;;;;;;5033955;28;20124;-79
2022/03/30 03:48:05;;;;;;;29.80;19.42;;;;;;;;;;5036184;28;20032;-81
2022/03/30 03:50:34;;;;;;;32.75;19.85;;;11.30;99.90;;;;;;5035338;28;20030;-81
2022/03/30 03:53:07;;;;;;;33.85;20.83;;;9.20;99.90;;;;;;5031738;28;20049;-80
2022/03/30 03:55:36;;;;;;;30.70;20.85;;;;;;;;;;5053715;28;20036;-78
2022/03/30 03:58:12;;;;;;;31.98;20.67;;;13.60;99.90;;;;;;5035208;28;20068;-79
2022/03/30 04:00:43;;;;;;;31.52;20.25;;;11.40;99.90;;;;;;5050887;28;20032;-81
2022/03/30 04:03:36;;;;;;;34.15;21.20;;;11.30;99.90;;;;;;5037453;28;20056;-82
2022/03/30 04:06:23;;;;;;;29.42;19.85;;;10.70;99.90;;;;;;5019790;28;20514;-78
2022/03/30 04:09:23;;;;;;;29.70;19.52;;;11.80;99.90;;;;;;5042549;28;20182;-79
2022/03/30 04:11:49;;;;;;;28.17;19.17;;;10.60;99.90;;;;;;5047368;28;20060;-80
2022/03/30 04:14:19;;;;;;;28.50;19.02;;;11.20;99.90;;;;;;5062046;28;20037;-80
2022/03/30 04:17:05;;;;;;;30.77;19.27;;;11.20;99.90;;;;;;5047901;28;20029;-82
2022/03/30 04:19:37;;;;;;;35.85;19.20;;;11.20;99.90;;;;;;5045633;28;20024;-81
2022/03/30 04:25:51;;;;;;;31.58;19.15;;;11.30;99.90;;;;;;5056990;28;20044;-79
2022/03/30 04:28:21;;;;;;;29.45;17.85;;;11.20;99.90;;;;;;5054009;28;20489;-78
2022/03/30 04:31:07;;;;;;;29.15;18.88;;;9.20;99.90;;;;;;5057412;28;20033;-80
2022/03/30 04:33:44;;;;;;;30.40;18.80;;;13.00;99.90;;;;;;5044189;28;20033;-80
2022/03/30 04:36:15;;;;;;;28.58;18.55;;;11.00;99.90;;;;;;5061766;28;20128;-79
2022/03/30 04:38:56;;;;;;;28.35;18.83;;;10.20;99.90;;;;;;5038610;28;20032;-80
2022/03/30 04:41:34;;;;;;;;;;;11.00;99.90;;;;;;5051591;28;20036;-80
2022/03/30 04:45:05;;;;;;;30.83;18.05;;;11.20;99.90;;;;;;5050493;28;20424;-80
2022/03/30 04:51:11;;;;;;;24.83;16.92;;;11.40;99.90;;;;;;5039962;28;20354;-82
2022/03/30 04:58:02;;;;;;;26.30;17.00;;;10.30;99.90;;;;;;4994424;28;20133;-79
2022/03/30 05:08:05;;;;;;;31.63;18.00;;;10.90;99.90;;;;;;5053237;28;20043;-79
2022/03/30 05:14:43;;;;;;;30.23;18.65;;;11.20;99.90;;;;;;5068037;28;20351;-79
2022/03/30 05:21:22;;;;;;;34.60;20.85;;;11.10;99.90;;;;;;5015485;28;20032;-79
2022/03/30 05:28:42;;;;;;;40.47;24.95;;;11.20;99.90;;;;;;4912660;29;20410;-79
2022/03/30 05:34:54;;;;;;;38.17;22.98;;;10.50;99.90;;;;;;4952983;29;20029;-81
2022/03/30 05:37:30;;;;;;;39.15;22.35;;;11.10;99.90;;;;;;4980093;28;20488;-81
2022/03/30 05:40:23;;;;;;;41.63;24.38;;;11.00;99.90;;;;;;5043933;28;20044;-81
2022/03/30 05:43:03;;;;;;;36.35;22.75;;;11.00;99.90;;;;;;5059339;28;20044;-80
2022/03/30 05:45:29;;;;;;;39.70;23.60;;;10.00;99.90;;;;;;5029859;28;20048;-80
2022/03/30 05:48:28;;;;;;;40.03;24.52;;;10.30;99.90;;;;;;5044414;28;20304;-80
2022/03/30 05:50:59;;;;;;;39.63;24.05;;;10.90;99.90;;;;;;5063113;28;20109;-80
2022/03/30 05:53:25;;;;;;;43.80;25.20;;;10.20;99.90;;;;;;5041576;28;20035;-79
2022/03/30 05:55:52;;;;;;;40.40;25.65;;;11.00;99.90;;;;;;5061260;28;20037;-80
2022/03/30 05:58:46;;;;;;;42.55;25.58;;;11.70;99.90;;;;;;5065888;28;20025;-80
2022/03/30 06:01:52;;;;;;;39.30;25.67;;;10.20;99.90;;;;;;5046329;28;20144;-78
2022/03/30 06:04:33;;;;;;;42.35;25.27;;;9.00;99.90;;;;;;5050190;28;20083;-80
2022/03/30 06:07:25;;;;;;;35.83;23.73;;;10.90;99.90;;;;;;5048807;28;20024;-80
2022/03/30 06:13:18;;;;;;;35.75;23.92;;;11.00;99.90;;;;;;5042197;28;20032;-80
2022/03/30 06:16:29;;;;;;;40.63;24.20;;;11.00;99.90;;;;;;5047944;28;20037;-80
2022/03/30 06:22:45;;;;;;;43.38;24.50;;;10.40;99.90;;;;;;5034285;28;20485;-79
2022/03/30 06:25:31;;;;;;;42.97;25.48;;;10.80;99.90;;;;;;5047256;28;20048;-80
2022/03/30 06:31:48;;;;;;;41.28;24.17;;;10.50;99.90;;;;;;5046224;28;20396;-80
2022/03/30 06:34:33;;;;;;;40.63;25.52;;;8.40;99.90;;;;;;5031193;28;20038;-79
2022/03/30 06:37:08;;;;;;;41.75;25.52;;;10.70;99.90;;;;;;5047519;28;20078;-81
2022/03/30 06:44:07;;;;;;;45.35;27.10;;;10.10;99.90;;;;;;5027606;28;20056;-80
2022/03/30 06:46:55;;;;;;;43.03;26.48;;;10.70;99.90;;;;;;5009641;28;20045;-80
2022/03/30 06:52:57;;;;;;;43.40;25.73;;;10.40;99.90;;;;;;5053230;23;20065;-89
2022/03/30 06:55:23;;;;;;;43.25;24.60;;;10.70;99.90;;;;;;5038942;28;20029;-87
2022/03/30 06:57:49;;;;;;;39.20;25.20;;;10.80;99.90;;;;;;5039738;28;20035;-87
2022/03/30 07:00:18;;;;;;;42.15;25.95;;;10.60;99.90;;;;;;5040494;28;20029;-85
2022/03/30 07:02:46;;;;;;;38.15;23.67;;;10.70;99.90;;;;;;5039087;28;20033;-87
2022/03/30 07:05:12;;;;;;;37.60;24.27;;;10.60;99.90;;;;;;5035980;28;20029;-88
2022/03/30 07:10:24;;;;;;;44.17;25.08;;;10.60;99.90;;;;;;5058403;28;22203;-89
2022/03/30 07:12:53;;;;;;;44.30;25.38;;;10.70;99.90;;;;;;5061189;28;20386;-88
2022/03/30 07:15:20;;;;;;;43.88;25.20;;;10.60;99.90;;;;;;5040116;28;20029;-91
2022/03/30 07:18:03;;;;;;;39.65;23.80;;;10.70;99.90;;;;;;5033302;28;20037;-89
2022/03/30 07:20:32;;;;;;;42.42;23.35;;;10.30;99.90;;;;;;5044628;28;20118;-91
2022/03/30 07:22:59;;;;;;;41.55;24.20;;;11.90;99.90;;;;;;5049761;28;20028;-87
2022/03/30 07:25:28;;;;;;;40.90;24.85;;;10.70;99.90;;;;;;5067138;28;20542;-87
2022/03/30 07:27:58;;;;;;;40.03;24.17;;;10.70;99.90;;;;;;5057522;28;20035;-86
2022/03/30 07:30:25;;;;;;;;;;;11.20;99.90;;;;;;5060825;28;20064;-88
2022/03/30 07:32:52;;;;;;;38.25;23.42;;;11.20;99.90;;;;;;5060047;28;19913;-89
2022/03/30 07:35:24;;;;;;;42.20;23.67;;;10.70;99.90;;;;;;5043833;28;20033;-89
2022/03/30 07:37:53;;;;;;;41.08;24.77;;;11.10;99.90;;;;;;5051399;28;20071;-90
2022/03/30 07:40:21;;;;;;;40.53;23.67;;;11.30;99.90;;;;;;5020600;28;20022;-90
2022/03/30 07:42:49;;;;;;;38.22;22.70;;;9.40;99.90;;;;;;5044242;28;20244;-90
2022/03/30 07:45:18;;;;;;;39.47;22.70;;;11.00;99.90;;;;;;5025414;28;20076;-91
2022/03/30 07:47:47;;;;;;;37.25;22.70;;;12.40;99.90;;;;;;5040072;28;20024;-89
2022/03/30 07:50:14;;;;;;;39.83;22.38;;;10.20;99.90;;;;;;5021773;28;20036;-89
2022/03/30 07:52:40;;;;;;;41.45;23.08;;;11.10;99.90;;;;;;5063249;28;20113;-88
2022/03/30 07:55:08;;;;;;;37.13;22.75;;;10.30;99.90;;;;;;5040777;28;20025;-86
2022/03/30 07:57:36;;;;;;;37.97;22.60;;;10.80;99.90;;;;;;5040440;28;20040;-91
2022/03/30 08:00:05;;;;;;;36.53;21.65;;;10.80;99.90;;;;;;5061280;28;20032;-91
2022/03/30 08:02:31;;;;;;;33.90;20.45;;;10.80;99.90;;;;;;5033928;28;20044;-90
2022/03/30 08:04:57;;;;;;;32.53;20.00;;;;;;;;;;5067601;28;20029;-92
2022/03/30 08:07:26;;;;;;;31.73;20.40;;;10.90;99.90;;;;;;5045998;28;20383;-91
2022/03/30 08:10:18;;;;;;;32.85;21.55;;;13.30;99.90;;;;;;5064704;28;20088;-90
2022/03/30 08:18:53;;;;;;;50.38;19.58;;;11.70;99.90;;;;;;5075964;28;19915;-85
2022/03/30 08:24:24;;;;;;;29.42;18.13;;;11.00;99.90;;;;;;5078982;28;20047;-89
2022/03/30 08:30:32;;;;;;;29.45;18.38;;;9.80;99.90;;;;;;5064070;28;20080;-88
2022/03/30 08:33:01;;;;;;;25.83;16.80;;;10.30;99.90;;;;;;5055141;28;20027;-82
2022/03/30 08:36:04;;;;;;;25.13;16.92;;;11.00;99.90;;;;;;5078053;28;20081;-86
2022/03/30 08:38:52;;;;;;;25.95;16.33;;;10.60;99.90;;;;;;5060434;28;20032;-86
2022/03/30 08:41:46;;;;;;;24.90;16.27;;;10.60;99.90;;;;;;5051859;28;20040;-87
2022/03/30 08:44:41;;;;;;;35.70;16.92;;;10.50;99.90;;;;;;5045318;28;20029;-87
2022/03/30 08:47:47;;;;;;;28.52;17.08;;;10.70;99.90;;;;;;5060339;28;20052;-88
2022/03/30 08:50:38;;;;;;;29.60;17.05;;;10.00;99.90;;;;;;5064818;28;20020;-86
2022/03/30 08:53:58;;;;;;;31.52;17.40;;;10.50;99.90;;;;;;5051139;28;20036;-85
2022/03/30 08:56:25;;;;;;;;;;;10.40;99.90;;;;;;5067251;28;20032;-85
2022/03/30 08:59:29;;;;;;;29.48;17.17;;;10.30;99.90;;;;;;5088834;28;19908;-85
2022/03/30 09:02:43;;;;;;;28.67;17.15;;;10.20;99.90;;;;;;5051625;28;20029;-83
2022/03/30 09:06:04;;;;;;;31.67;18.13;;;12.70;99.90;;;;;;5052874;28;20097;-83
2022/03/30 09:08:51;;;;;;;;;;;10.50;99.90;;;;;;5075378;28;20431;-85
2022/03/30 09:12:22;;;;;;;32.63;18.80;;;10.50;99.90;;;;;;5048624;28;19912;-87
2022/03/30 09:15:26;;;;;;;35.55;20.58;;;13.10;99.90;;;;;;5058265;28;20032;-88
2022/03/30 09:21:39;;;;;;;30.95;18.83;;;10.40;99.90;;;;;;5071413;28;20371;-90
2022/03/30 09:24:41;;;;;;;34.92;19.35;;;10.60;99.90;;;;;;5049565;28;20028;-90
2022/03/30 09:27:56;;;;;;;33.15;19.65;;;9.20;99.90;;;;;;5066133;28;20041;-85
2022/03/30 09:30:50;;;;;;;33.35;18.67;;;10.50;99.90;;;;;;5077790;28;20032;-89
2022/03/30 09:33:27;;;;;;;34.70;19.90;;;10.30;99.90;;;;;;5070349;28;20040;-87
2022/03/30 09:35:53;;;;;;;31.70;19.10;;;9.40;99.90;;;;;;5052804;28;20017;-87
2022/03/30 09:38:57;;;;;;;31.70;19.13;;;10.20;99.90;;;;;;5037031;28;20018;-89
2022/03/30 09:41:23;;;;;;;34.47;18.88;;;10.20;99.90;;;;;;5026427;28;20041;-85
2022/03/30 09:43:50;;;;;;;30.15;17.70;;;;;;;;;;5012465;28;20030;-88
2022/03/30 09:47:35;;;;;;;29.23;18.17;;;8.90;99.90;;;;;;5004601;28;20072;-89
2022/03/30 09:50:16;;;;;;;27.92;15.95;;;10.20;99.90;;;;;;4995370;28;20078;-88
2022/03/30 09:53:40;;;;;;;26.75;15.73;;;10.10;99.90;;;;;;5010271;28;20423;-91
2022/03/30 09:56:54;;;;;;;25.27;15.18;;;10.40;99.90;;;;;;5073543;28;20017;-88
2022/03/30 09:59:28;;;;;;;24.90;15.73;;;10.60;99.90;;;;;;5066306;28;20021;-88
2022/03/30 10:10:23;;;;;;;24.77;14.63;;;10.70;99.90;;;;;;5053480;26;20049;-86
2022/03/30 10:12:53;;;;;;;22.55;13.60;;;10.70;99.90;;;;;;5033021;28;20048;-90
2022/03/30 10:15:22;;;;;;;21.02;14.15;;;10.60;99.90;;;;;;5028296;28;20222;-85
2022/03/30 10:17:48;;;;;;;23.33;14.45;;;10.60;99.90;;;;;;5033912;28;20034;-86
2022/03/30 10:20:14;;;;;;;21.40;13.68;;;10.60;99.90;;;;;;5018139;28;20735;-87
2022/03/30 10:23:15;;;;;;;20.30;13.63;;;10.60;99.90;;;;;;5016551;28;20076;-85
2022/03/30 10:25:53;;;;;;;;;;;10.60;99.90;;;;;;4971742;28;20034;-87
2022/03/30 10:28:39;;;;;;;21.60;13.05;;;10.50;99.90;;;;;;5011421;28;19909;-86
2022/03/30 10:31:05;;;;;;;24.42;13.70;;;10.40;99.90;;;;;;5024699;28;20032;-87
2022/03/30 10:33:40;;;;;;;23.17;13.45;;;10.80;99.90;;;;;;5017842;28;20026;-87
2022/03/30 10:36:27;;;;;;;22.00;13.60;;;10.30;99.90;;;;;;5018580;28;20021;-87
2022/03/30 10:39:14;;;;;;;20.63;12.35;;;10.30;99.90;;;;;;5018747;28;20025;-86
2022/03/30 10:41:46;;;;;;;22.30;13.48;;;10.30;99.90;;;;;;5019185;28;20470;-86
2022/03/30 10:44:37;;;;;;;21.98;13.27;;;10.40;99.90;;;;;;5027022;28;20033;-88
2022/03/30 10:47:23;;;;;;;23.15;13.32;;;10.40;99.90;;;;;;5013385;28;20037;-88
2022/03/30 10:49:54;;;;;;;22.45;13.82;;;10.30;99.90;;;;;;5025657;28;20108;-88
2022/03/30 10:52:35;;;;;;;23.23;13.85;;;10.40;99.90;;;;;;5017946;28;20029;-86
2022/03/30 10:55:13;;;;;;;21.38;12.50;;;10.30;99.90;;;;;;5021797;28;20018;-86
2022/03/30 10:57:49;;;;;;;21.25;13.48;;;10.40;99.90;;;;;;5021717;28;20025;-88
2022/03/30 11:00:20;;;;;;;22.60;13.98;;;10.20;99.90;;;;;;5026108;28;20037;-88
2022/03/30 11:02:46;;;;;;;24.10;13.95;;;10.30;99.90;;;;;;5034542;28;20025;-89
2022/03/30 11:05:17;;;;;;;17.40;12.23;;;10.40;99.90;;;;;;5025202;28;20033;-87
2022/03/30 11:07:43;;;;;;;24.17;13.88;;;11.70;99.90;;;;;;5023573;28;20026;-84
2022/03/30 11:10:16;;;;;;;23.40;14.18;;;10.40;99.90;;;;;;5024883;28;20060;-87
2022/03/30 11:13:01;;;;;;;21.20;13.18;;;10.30;99.90;;;;;;5022977;28;20052;-88
2022/03/30 11:15:28;;;;;;;23.98;13.98;;;8.20;99.90;;;;;;5023497;28;20026;-89
2022/03/30 11:17:56;;;;;;;20.50;13.35;;;10.50;99.90;;;;;;5023375;28;20044;-89
2022/03/30 11:20:24;;;;;;;22.65;14.02;;;10.60;99.90;;;;;;5033425;28;20057;-88
2022/03/30 11:22:50;;;;;;;21.52;13.65;;;10.70;99.90;;;;;;5038316;28;20033;-87
2022/03/30 11:25:24;;;;;;;20.55;13.05;;;10.80;99.90;;;;;;5015044;28;20079;-88
2022/03/30 11:28:01;;;;;;;20.23;13.35;;;10.90;99.90;;;;;;5021605;28;20112;-86
2022/03/30 11:30:29;;;;;;;22.95;12.98;;;11.00;99.90;;;;;;5034877;28;20029;-90
2022/03/30 11:32:56;;;;;;;22.02;14.02;;;11.10;99.90;;;;;;5031663;28;20029;-90
2022/03/30 11:35:28;;;;;;;24.00;13.18;;;11.10;99.90;;;;;;5015834;28;20490;-87
2022/03/30 11:38:08;;;;;;;20.65;13.50;;;11.30;99.90;;;;;;5018187;28;20025;-87
2022/03/30 11:40:39;;;;;;;21.30;13.53;;;11.40;99.90;;;;;;5015300;28;20025;-85
2022/03/30 11:43:05;;;;;;;23.15;13.82;;;11.40;99.90;;;;;;5018408;28;20029;-89
2022/03/30 11:45:32;;;;;;;20.30;12.82;;;11.20;99.90;;;;;;5035098;28;20489;-88
2022/03/30 11:48:00;;;;;;;24.95;14.13;;;11.50;99.90;;;;;;5033018;28;20046;-87
2022/03/30 11:50:34;;;;;;;21.38;13.35;;;11.30;99.90;;;;;;5016374;28;20048;-87
2022/03/30 11:53:06;;;;;;;23.90;14.30;;;11.40;99.90;;;;;;5008719;28;20037;-87
2022/03/30 11:55:38;;;;;;;25.70;14.30;;;11.40;99.90;;;;;;5014360;28;20029;-88
2022/03/30 11:58:04;;;;;;;22.67;14.32;;;11.40;99.90;;;;;;5037793;28;20033;-87
2022/03/30 12:00:31;;;;;;;23.00;12.95;;;11.30;99.90;;;;;;5017530;28;20033;-89
2022/03/30 12:03:00;;;;;;;24.95;14.93;;;11.40;99.90;;;;;;5021171;28;20022;-89
2022/03/30 12:05:26;;;;;;;22.08;13.48;;;11.40;99.90;;;;;;5019871;28;20025;-86
2022/03/30 12:07:57;;;;;;;21.52;13.15;;;11.60;99.90;;;;;;5018832;28;20159;-85
2022/03/30 12:10:31;;;;;;;23.42;13.65;;;11.80;99.90;;;;;;5019405;28;20083;-87
2022/03/30 12:12:58;;;;;;;24.00;14.02;;;11.90;99.90;;;;;;5000341;28;20065;-85
2022/03/30 12:15:24;;;;;;;24.67;14.25;;;12.10;99.90;;;;;;5019782;28;20026;-88
2022/03/30 12:17:57;;;;;;;23.95;13.40;;;12.10;99.90;;;;;;5037540;28;20029;-85
2022/03/30 12:20:28;;;;;;;27.50;15.23;;;12.10;99.90;;;;;;5022731;28;20125;-87
2022/03/30 12:22:59;;;;;;;24.17;13.95;;;12.10;99.90;;;;;;5019918;28;20035;-87
2022/03/30 12:25:34;;;;;;;21.92;14.05;;;12.10;99.90;;;;;;5019899;28;20094;-86
2022/03/30 12:28:03;;;;;;;21.17;13.57;;;11.90;99.90;;;;;;5020847;28;20264;-87
2022/03/30 12:30:34;;;;;;;21.95;13.05;;;11.80;99.90;;;;;;5010919;28;20465;-86
2022/03/30 12:33:00;;;;;;;20.17;12.88;;;11.80;99.90;;;;;;5008341;28;20096;-83
2022/03/30 12:35:35;;;;;;;21.65;13.70;;;11.60;99.90;;;;;;5016830;28;20036;-83
2022/03/30 12:38:09;;;;;;;20.23;13.05;;;11.60;99.90;;;;;;5013489;28;20559;-87
2022/03/30 12:40:39;;;;;;;22.55;13.40;;;11.70;99.90;;;;;;5014611;28;20101;-81
2022/03/30 12:43:05;;;;;;;25.00;14.63;;;11.60;99.90;;;;;;5038089;28;20078;-85
2022/03/30 12:45:31;;;;;;;23.35;13.13;;;11.60;99.90;;;;;;5039759;28;20056;-87
2022/03/30 12:47:59;;;;;;;20.58;12.63;;;12.00;99.90;;;;;;5020613;28;20109;-85
2022/03/30 12:50:31;;;;;;;20.73;12.73;;;12.10;99.90;;;;;;5021103;28;20029;-87
2022/03/30 12:55:34;;;;;;;21.60;12.90;;;11.90;99.90;;;;;;5004164;28;20057;-77
2022/03/30 12:58:13;;;;;;;20.75;13.13;;;11.80;99.90;;;;;;5004492;28;20033;-80
2022/03/30 13:00:43;;;;;;;20.48;13.10;;;11.90;99.90;;;;;;5002817;28;20042;-79
2022/03/30 13:03:15;;;;;;;19.30;12.77;;;12.10;99.90;;;;;;5006705;28;20052;-78
2022/03/30 13:05:43;;;;;;;21.02;13.70;;;12.20;99.90;;;;;;5004676;28;20030;-80
2022/03/30 13:08:14;;;;;;;19.83;12.35;;;12.10;99.90;;;;;;4980459;28;20026;-81
2022/03/30 13:10:51;;;;;;;18.73;11.82;;;12.20;99.90;;;;;;4980940;28;20030;-77
2022/03/30 13:13:24;;;;;;;24.70;13.40;;;12.20;99.90;;;;;;4987608;28;20081;-80
2022/03/30 13:15:51;;;;;;;17.40;11.45;;;12.10;99.90;;;;;;4987175;28;20121;-80
2022/03/30 13:18:21;;;;;;;19.52;12.40;;;12.10;99.90;;;;;;4970915;28;20318;-81
2022/03/30 13:21:17;;;;;;;18.40;12.57;;;12.00;99.90;;;;;;4975354;28;20136;-79
2022/03/30 13:23:50;;;;;;;19.10;12.18;;;11.90;99.90;;;;;;4975848;28;20218;-79
2022/03/30 13:26:37;;;;;;;20.05;12.70;;;11.90;99.90;;;;;;4959291;28;20069;-80
2022/03/30 13:29:04;;;;;;;21.13;12.45;;;11.70;99.90;;;;;;4975758;28;20065;-80
2022/03/30 13:31:45;;;;;;;19.88;12.88;;;11.60;99.90;;;;;;4977928;28;20033;-81
2022/03/30 13:34:15;;;;;;;18.67;11.77;;;11.60;99.90;;;;;;4984881;28;20080;-80
2022/03/30 13:36:42;;;;;;;19.83;12.25;;;11.80;99.90;;;;;;4964545;28;20124;-81
2022/03/30 13:39:10;;;;;;;21.35;12.60;;;11.80;99.90;;;;;;4987847;28;20042;-80
2022/03/30 13:41:38;;;;;;;17.95;12.15;;;11.90;99.90;;;;;;4973997;28;20038;-81
2022/03/30 13:44:05;;;;;;;19.80;11.75;;;12.00;99.90;;;;;;4978596;28;20018;-78
2022/03/30 13:46:35;;;;;;;19.73;11.93;;;11.90;99.90;;;;;;4996496;28;20049;-79
2022/03/30 13:49:02;;;;;;;20.40;12.15;;;12.20;99.90;;;;;;4980359;28;20037;-81
2022/03/30 13:51:30;;;;;;;19.63;12.48;;;12.30;99.90;;;;;;4979271;28;20129;-79
2022/03/30 13:53:57;;;;;;;19.80;12.70;;;12.50;99.90;;;;;;4979197;28;20034;-80
2022/03/30 13:56:23;;;;;;;22.75;13.60;;;12.60;99.90;;;;;;4985080;28;20033;-79
2022/03/30 13:58:52;;;;;;;19.80;12.38;;;12.70;99.90;;;;;;5000375;28;20010;-76
2022/03/30 14:01:20;;;;;;;22.40;13.07;;;12.40;99.90;;;;;;4991999;28;20045;-76
2022/03/30 14:03:47;;;;;;;20.48;12.85;;;12.30;99.90;;;;;;4994492;28;20073;-76
2022/03/30 14:06:14;;;;;;;20.08;12.77;;;12.40;99.90;;;;;;5003491;28;20043;-76
2022/03/30 14:08:47;;;;;;;20.52;12.68;;;12.50;99.90;;;;;;4976539;28;20068;-76
2022/03/30 14:11:17;;;;;;;20.75;12.15;;;12.60;99.90;;;;;;4974903;28;20027;-77
2022/03/30 14:13:45;;;;;;;22.98;12.75;;;12.60;99.90;;;;;;4985488;28;20042;-77
2022/03/30 14:16:11;;;;;;;20.20;12.57;;;12.60;99.90;;;;;;4990064;28;20056;-77
2022/03/30 14:18:39;;;;;;;19.23;11.98;;;12.50;99.90;;;;;;4990538;28;20026;-78
2022/03/30 14:21:05;;;;;;;16.80;11.52;;;12.50;99.90;;;;;;4993016;28;20030;-76
2022/03/30 14:23:31;;;;;;;20.60;11.73;;;12.60;99.90;;;;;;4987738;28;20026;-80
2022/03/30 14:25:59;;;;;;;20.95;13.32;;;12.60;99.90;;;;;;4970495;28;20030;-76
2022/03/30 14:28:25;;;;;;;18.60;12.20;;;12.50;99.90;;;;;;4953935;28;20155;-77
2022/03/30 14:30:51;;;;;;;17.77;11.80;;;12.40;99.90;;;;;;4967832;28;20125;-79
2022/03/30 14:33:17;;;;;;;22.45;12.88;;;12.50;99.90;;;;;;4968293;28;20022;-78
2022/03/30 14:35:45;;;;;;;19.65;11.95;;;12.50;99.90;;;;;;4968076;28;20033;-77
2022/03/30 14:38:13;;;;;;;20.02;12.05;;;12.50;99.90;;;;;;4982361;28;20100;-77
2022/03/30 14:40:41;;;;;;;19.65;11.52;;;12.60;99.90;;;;;;4981338;28;20027;-80
2022/03/30 14:43:07;;;;;;;20.73;12.63;;;12.50;99.90;;;;;;4964625;28;20027;-77
2022/03/30 14:45:33;;;;;;;21.73;12.27;;;12.50;99.90;;;;;;4969531;28;20163;-78
2022/03/30 14:48:00;;;;;;;18.90;11.85;;;12.60;99.90;;;;;;4968678;28;20093;-80
2022/03/30 14:50:26;;;;;;;20.88;11.93;;;12.50;99.90;;;;;;4986517;28;20027;-77
2022/03/30 14:52:53;;;;;;;18.80;11.93;;;12.70;99.90;;;;;;4972595;28;20370;-76
2022/03/30 14:55:21;;;;;;;18.25;11.20;;;12.70;99.90;;;;;;4988776;28;20037;-79
2022/03/30 14:57:52;;;;;;;17.17;11.35;;;12.70;99.90;;;;;;4973646;28;20026;-77